Time;durP1;ratioP1;P1;durP2;ratioP2;P2;SDS_P1;SDS_P2;PMS_P1;PMS_P2;Temp;Humidity;BMP_temperature;BMP_pressure;BME280_temperature;BME280_humidity;BME280_pressure;Samples;Min_cycle;Max_cycle;Signal;HPM_P1;HPM_P2
2021/10/22 00:02:05;;;;;;;70.85;31.30;;;;;;;10.27;78.64;100016.88;5043964;28;20374;-72
2021/10/22 00:04:31;;;;;;;58.72;33.35;;;;;;;10.37;78.45;100016.78;5043065;28;20377;-74
2021/10/22 00:06:56;;;;;;;58.20;34.55;;;;;;;10.47;79.46;100028.13;5043807;28;20040;-73
2021/10/22 00:09:22;;;;;;;60.35;34.97;;;;;;;10.44;79.55;100028.44;5043807;28;20033;-74
2021/10/22 00:11:47;;;;;;;60.80;34.53;;;;;;;10.43;79.85;100017.00;5043835;28;20071;-74
2021/10/22 00:14:13;;;;;;;52.33;31.15;;;;;;;10.47;77.25;100010.44;5043566;28;20101;-74
2021/10/22 00:16:39;;;;;;;74.22;33.70;;;;;;;10.46;79.28;100021.16;5043659;28;20286;-74
2021/10/22 00:19:05;;;;;;;59.70;32.40;;;;;;;10.45;78.89;100023.00;5043515;28;20267;-74
2021/10/22 00:21:31;;;;;;;59.60;33.17;;;;;;;10.40;79.13;100025.25;5043652;28;20041;-73
2021/10/22 00:23:56;;;;;;;59.50;32.28;;;;;;;10.41;79.24;100008.41;5043508;28;20045;-74
2021/10/22 00:26:22;;;;;;;55.03;30.13;;;;;;;10.66;78.76;100024.44;5025732;28;20031;-74
2021/10/22 00:28:47;;;;;;;51.95;28.95;;;;;;;10.68;78.35;100018.00;5043425;28;20223;-73
2021/10/22 00:31:13;;;;;;;43.38;27.60;;;;;;;10.74;75.10;100020.03;5043215;28;20041;-72
2021/10/22 00:33:39;;;;;;;46.83;27.98;;;;;;;10.66;76.28;100011.22;5025424;28;20037;-73
2021/10/22 00:36:07;;;;;;;53.72;28.23;;;;;;;10.66;76.73;100011.22;5043249;28;20096;-74
2021/10/22 00:38:33;;;;;;;54.80;28.83;;;;;;;10.67;76.55;100008.41;5043358;28;20048;-73
2021/10/22 00:40:58;;;;;;;59.28;25.83;;;;;;;10.57;74.49;100007.69;5043147;28;20049;-74
2021/10/22 00:43:28;;;;;;;43.28;24.63;;;;;;;10.40;73.25;100017.31;5025626;28;20041;-74
2021/10/22 00:45:53;;;;;;;45.10;22.77;;;;;;;10.32;73.79;100019.88;5043257;28;20096;-73
2021/10/22 00:48:19;;;;;;;40.00;21.45;;;;;;;9.96;75.46;100032.28;5043131;28;20040;-73
2021/10/22 00:50:51;;;;;;;46.55;24.38;;;;;;;9.50;77.32;100035.94;5043106;28;20044;-73
2021/10/22 00:53:18;;;;;;;45.42;23.52;;;;;;;9.47;80.00;100036.22;5042674;28;20037;-73
2021/10/22 00:55:43;;;;;;;44.80;25.08;;;;;;;9.34;80.80;100041.00;5042804;28;20048;-73
2021/10/22 00:58:11;;;;;;;45.28;25.25;;;;;;;9.34;82.57;100018.03;5042933;28;20037;-72
2021/10/22 01:00:36;;;;;;;43.00;23.85;;;;;;;9.57;79.95;100023.78;5042606;28;20045;-72
2021/10/22 01:03:05;;;;;;;46.05;27.13;;;;;;;9.59;80.94;100027.94;5042774;28;20041;-74
2021/10/22 01:05:30;;;;;;;51.50;30.05;;;;;;;9.78;82.22;100026.97;5042255;28;20272;-74
2021/10/22 01:07:56;;;;;;;43.72;24.95;;;;;;;9.82;81.30;100035.44;5042698;28;20029;-74
2021/10/22 01:10:21;;;;;;;45.13;25.25;;;;;;;9.81;79.31;100031.13;5042860;28;20045;-73
2021/10/22 01:12:47;;;;;;;47.53;26.17;;;;;;;9.74;79.90;100027.44;5025062;28;20031;-73
2021/10/22 01:15:13;;;;;;;48.45;27.48;;;;;;;9.74;81.55;100028.25;5042714;28;20068;-74
2021/10/22 01:17:41;;;;;;;44.85;25.20;;;;;;;9.92;81.47;100020.34;5042685;28;20029;-73
2021/10/22 01:20:15;;;;;;;46.05;26.67;;;;;;;9.95;79.96;100014.75;5042333;28;20048;-74
2021/10/22 01:22:42;;;;;;;39.17;22.80;;;;;;;9.94;79.77;100018.38;5042771;28;20044;-74
2021/10/22 01:25:11;;;;;;;43.35;24.77;;;;;;;10.05;78.52;100020.78;5024807;28;20100;-72
2021/10/22 01:27:37;;;;;;;44.42;25.35;;;;;;;10.12;77.89;100019.19;5042374;28;20059;-72
2021/10/22 01:30:08;;;;;;;45.05;23.35;;;;;;;9.81;78.95;100029.31;5042361;28;20048;-73
2021/10/22 01:32:34;;;;;;;39.15;23.65;;;;;;;9.71;79.85;100017.16;5042462;28;20033;-74
2021/10/22 01:35:00;;;;;;;43.20;24.85;;;;;;;9.72;81.18;100027.56;5041963;28;20206;-74
2021/10/22 01:37:26;;;;;;;45.03;24.13;;;;;;;9.86;79.79;100016.47;5042400;28;20337;-74
2021/10/22 01:39:51;;;;;;;38.42;23.02;;;;;;;9.90;79.82;100011.72;5042339;28;20037;-73
2021/10/22 01:42:17;;;;;;;46.08;24.52;;;;;;;9.99;80.25;100016.09;5024696;28;20039;-74
2021/10/22 01:44:43;;;;;;;40.72;22.05;;;;;;;10.11;79.55;100020.16;5042188;28;20041;-73
2021/10/22 01:47:09;;;;;;;36.97;22.05;;;;;;;10.21;78.35;100020.13;5042215;28;20030;-74
2021/10/22 01:49:34;;;;;;;39.35;24.23;;;;;;;10.14;78.54;100019.03;5042272;28;20187;-74
2021/10/22 01:52:00;;;;;;;38.90;23.58;;;;;;;10.26;77.87;100030.25;5042182;28;20341;-72
2021/10/22 01:54:26;;;;;;;34.67;21.92;;;;;;;10.40;78.17;100027.91;5042001;28;20072;-72
2021/10/22 01:56:52;;;;;;;38.60;22.08;;;;;;;10.49;78.02;100026.16;5042090;28;20095;-73
2021/10/22 01:59:17;;;;;;;41.53;23.23;;;;;;;10.50;77.09;100038.41;5041893;28;20314;-73
2021/10/22 02:01:43;;;;;;;35.80;22.40;;;;;;;10.49;77.48;100039.41;5042477;28;20037;-74
2021/10/22 02:04:08;;;;;;;39.83;23.55;;;;;;;10.34;77.83;100036.44;5041160;28;20311;-74
2021/10/22 02:06:34;;;;;;;42.45;23.60;;;;;;;10.14;78.40;100038.38;5044970;28;20044;-74
2021/10/22 02:08:59;;;;;;;39.47;24.45;;;;;;;10.45;77.05;100041.53;5045932;28;20033;-73
2021/10/22 02:11:25;;;;;;;38.38;21.92;;;;;;;10.40;76.42;100043.78;5046056;28;20227;-74
2021/10/22 02:13:51;;;;;;;34.17;20.60;;;;;;;10.34;75.06;100039.09;5046024;28;20243;-73
2021/10/22 02:16:16;;;;;;;33.85;21.65;;;;;;;10.24;74.87;100049.75;5046234;28;20037;-73
2021/10/22 02:18:42;;;;;;;31.08;19.77;;;;;;;10.21;74.57;100052.72;5046147;28;20062;-73
2021/10/22 02:21:07;;;;;;;29.63;20.35;;;;;;;10.09;75.04;100053.88;5045857;28;20049;-72
2021/10/22 02:23:33;;;;;;;36.50;21.35;;;;;;;10.06;76.47;100059.47;5045982;28;20068;-74
2021/10/22 02:25:59;;;;;;;35.08;20.92;;;;;;;9.98;76.19;100062.06;5045513;28;20045;-74
2021/10/22 02:28:24;;;;;;;36.22;22.15;;;;;;;9.86;76.57;100047.38;5045672;28;20049;-73
2021/10/22 02:30:50;;;;;;;37.63;22.80;;;;;;;9.85;77.53;100058.94;5045805;28;20099;-74
2021/10/22 02:33:15;;;;;;;41.65;23.85;;;;;;;9.99;76.28;100060.25;5045536;28;20352;-73
2021/10/22 02:35:41;;;;;;;36.55;21.65;;;;;;;10.02;74.18;100066.06;5045320;28;20037;-73
2021/10/22 02:38:06;;;;;;;34.10;21.38;;;;;;;9.71;75.14;100060.28;5045635;28;20327;-73
2021/10/22 02:40:32;;;;;;;38.00;21.42;;;;;;;9.70;76.57;100073.66;5045841;28;20231;-74
2021/10/22 02:42:58;;;;;;;37.05;22.02;;;;;;;9.73;76.83;100078.66;5045457;28;20310;-73
2021/10/22 02:45:23;;;;;;;47.40;26.00;;;;;;;9.71;77.52;100062.09;5045439;28;20200;-73
2021/10/22 02:47:49;;;;;;;44.17;23.20;;;;;;;9.72;77.46;100083.09;5045362;28;20208;-72
2021/10/22 02:50:14;;;;;;;41.40;22.88;;;;;;;9.78;75.44;100084.31;5027495;28;20037;-72
2021/10/22 02:52:40;;;;;;;38.05;22.10;;;;;;;9.68;74.65;100092.31;5045333;28;20021;-74
2021/10/22 02:55:06;;;;;;;44.22;23.58;;;;;;;9.66;76.04;100082.88;5045323;28;20051;-74
2021/10/22 02:57:32;;;;;;;49.60;25.02;;;;;;;9.64;76.82;100090.13;5045080;28;20349;-73
2021/10/22 02:59:58;;;;;;;44.83;23.55;;;;;;;9.76;76.29;100091.56;5045047;28;20108;-73
2021/10/22 03:02:23;;;;;;;41.35;20.45;;;;;;;9.72;73.18;100098.13;5045172;28;20056;-73
2021/10/22 03:04:49;;;;;;;41.80;22.17;;;;;;;9.56;72.34;100098.78;5044227;28;20316;-73
2021/10/22 03:07:14;;;;;;;40.20;21.73;;;;;;;9.35;73.24;100098.97;5045069;28;20053;-74
2021/10/22 03:09:40;;;;;;;38.70;19.95;;;;;;;9.20;73.65;100103.91;5044954;28;20041;-73
2021/10/22 03:12:06;;;;;;;36.30;20.08;;;;;;;9.10;74.72;100104.91;5044946;28;20346;-73
2021/10/22 03:14:32;;;;;;;50.15;24.52;;;;;;;8.92;78.28;100105.66;5044746;28;20037;-72
2021/10/22 03:16:57;;;;;;;47.08;25.00;;;;;;;9.16;78.83;100105.19;5044381;28;20068;-72
2021/10/22 03:19:22;;;;;;;49.88;27.05;;;;;;;9.10;79.00;100110.19;5044714;28;20057;-73
2021/10/22 03:21:48;;;;;;;64.45;29.00;;;;;;;9.21;79.38;100102.09;5044836;28;20231;-74
2021/10/22 03:24:13;;;;;;;43.35;26.10;;;;;;;9.02;80.17;100105.63;5044612;28;20044;-73
2021/10/22 03:26:39;;;;;;;42.92;24.02;;;;;;;8.98;80.20;100119.28;5044665;28;20084;-74
2021/10/22 03:29:04;;;;;;;39.08;22.02;;;;;;;9.10;79.06;100126.06;5044485;28;20033;-74
2021/10/22 03:31:32;;;;;;;37.80;22.35;;;;;;;9.26;77.79;100124.47;5044626;28;20029;-73
2021/10/22 03:33:57;;;;;;;35.92;21.92;;;;;;;9.31;77.80;100117.91;5043978;28;20072;-73
2021/10/22 03:36:23;;;;;;;43.78;22.25;;;;;;;9.26;77.47;100116.53;5026926;28;20017;-73
2021/10/22 03:38:49;;;;;;;34.35;20.77;;;;;;;9.37;77.33;100112.91;5044558;28;20379;-73
2021/10/22 03:41:14;;;;;;;34.78;20.33;;;;;;;9.35;77.31;100117.47;5044285;28;20346;-72
2021/10/22 03:43:40;;;;;;;36.47;20.23;;;;;;;9.37;77.04;100107.63;5044360;28;20029;-72
2021/10/22 03:46:05;;;;;;;37.35;20.65;;;;;;;9.47;75.24;100113.72;5026602;28;20128;-73
2021/10/22 03:48:31;;;;;;;37.42;20.95;;;;;;;9.30;76.17;100114.44;5044302;28;20342;-73
2021/10/22 03:50:57;;;;;;;36.25;20.65;;;;;;;9.22;76.81;100120.44;5044182;28;20044;-73
2021/10/22 03:53:22;;;;;;;41.30;22.88;;;;;;;9.23;77.22;100108.06;5044634;28;20120;-73
2021/10/22 03:55:48;;;;;;;41.20;21.60;;;;;;;9.22;77.00;100117.81;5044308;28;20044;-73
2021/10/22 03:58:14;;;;;;;35.70;19.60;;;;;;;9.19;76.18;100110.16;5044068;28;20235;-73
2021/10/22 04:00:40;;;;;;;41.03;20.15;;;;;;;9.17;75.41;100119.22;5044130;28;20043;-73
2021/10/22 04:03:06;;;;;;;44.50;25.83;;;;;;;9.11;75.69;100115.34;5043857;28;20069;-73
2021/10/22 04:05:32;;;;;;;36.78;21.23;;;;;;;9.08;76.26;100125.34;5043304;28;20046;-73
2021/10/22 04:07:58;;;;;;;39.42;22.00;;;;;;;8.87;75.90;100114.97;5043856;28;20064;-72
2021/10/22 04:10:23;;;;;;;41.35;22.60;;;;;;;8.90;76.15;100119.97;5026156;28;20064;-72
2021/10/22 04:12:49;;;;;;;35.70;20.42;;;;;;;8.76;76.83;100123.06;5043786;28;20026;-73
2021/10/22 04:15:14;;;;;;;44.00;22.00;;;;;;;8.79;77.25;100126.25;5026093;28;20033;-73
2021/10/22 04:17:40;;;;;;;36.33;21.75;;;;;;;8.84;76.88;100131.94;5043815;28;20036;-73
2021/10/22 04:20:07;;;;;;;37.03;20.38;;;;;;;8.92;76.19;100128.59;5043462;28;20046;-73
2021/10/22 04:22:32;;;;;;;33.10;19.98;;;;;;;8.73;76.45;100123.34;5043807;28;20033;-73
2021/10/22 04:24:58;;;;;;;30.80;19.00;;;;;;;8.58;77.95;100121.13;5043538;28;20075;-73
2021/10/22 04:27:24;;;;;;;34.90;20.83;;;;;;;8.48;77.82;100130.88;5043056;28;20072;-73
2021/10/22 04:29:49;;;;;;;37.70;21.67;;;;;;;8.56;78.91;100127.53;5043011;28;20040;-73
2021/10/22 04:32:15;;;;;;;43.38;22.48;;;;;;;8.51;79.04;100133.22;5043599;28;20104;-73
2021/10/22 04:34:40;;;;;;;52.92;25.63;;;;;;;8.71;79.16;100141.13;5042831;28;20068;-72
2021/10/22 04:42:51;;;;;;;47.40;21.90;;;;;;;8.64;79.34;100141.69;5043105;28;20274;-73
2021/10/22 04:45:18;;;;;;;78.30;22.88;;;;;;;8.62;80.37;100134.88;5043116;28;20200;-73
2021/10/22 04:47:44;;;;;;;114.72;24.55;;;;;;;8.70;80.10;100137.66;5043236;28;20041;-73
2021/10/22 04:50:11;;;;;;;81.10;27.85;;;;;;;8.58;81.38;100134.34;5043096;28;20041;-73
2021/10/22 04:52:37;;;;;;;116.25;35.05;;;;;;;8.76;81.95;100146.81;5042928;28;20377;-73
2021/10/22 04:55:04;;;;;;;65.60;25.58;;;;;;;8.75;81.57;100132.78;5042886;28;20087;-73
2021/10/22 04:57:30;;;;;;;52.90;26.15;;;;;;;8.85;80.58;100138.06;5025322;28;20269;-72
2021/10/22 04:59:55;;;;;;;49.60;24.48;;;;;;;8.68;81.66;100139.59;5042845;28;20030;-72
2021/10/22 05:02:20;;;;;;;47.40;24.23;;;;;;;8.89;80.60;100136.81;5042924;28;20033;-73
2021/10/22 05:04:46;;;;;;;49.78;24.00;;;;;;;9.12;79.84;100147.88;5020911;28;20042;-73
2021/10/22 05:07:11;;;;;;;41.10;22.85;;;;;;;8.97;80.43;100139.56;5023006;28;20060;-72
2021/10/22 05:09:37;;;;;;;45.25;21.13;;;;;;;9.16;79.18;100150.09;5022941;28;20046;-72
2021/10/22 05:12:06;;;;;;;46.03;19.83;;;;;;;9.22;79.81;100149.50;5023004;28;20026;-73
2021/10/22 05:14:40;;;;;;;38.45;19.05;;;;;;;9.07;79.77;100152.75;5022874;28;20046;-73
2021/10/22 05:17:06;;;;;;;34.83;17.50;;;;;;;9.26;80.19;100150.91;5022983;28;20080;-73
2021/10/22 05:19:32;;;;;;;39.10;19.10;;;;;;;9.16;80.84;100162.47;5021470;28;20037;-73
2021/10/22 05:21:57;;;;;;;29.92;19.30;;;;;;;9.09;82.19;100164.00;5022810;28;20072;-73
2021/10/22 05:24:23;;;;;;;59.90;25.00;;;;;;;9.12;82.35;100164.56;5022664;28;20049;-73
2021/10/22 05:26:50;;;;;;;35.15;18.88;;;;;;;9.02;82.67;100169.03;5022691;28;20034;-73
2021/10/22 05:29:16;;;;;;;44.25;22.98;;;;;;;9.27;82.17;100163.13;5022656;28;20100;-73
2021/10/22 05:31:41;;;;;;;43.25;20.60;;;;;;;9.42;82.59;100162.69;5022758;28;20311;-73
2021/10/22 05:34:07;;;;;;;30.48;19.15;;;;;;;9.57;82.31;100170.00;5021947;28;20053;-72
2021/10/22 05:36:32;;;;;;;34.15;17.63;;;;;;;9.84;80.39;100171.84;5022663;28;20133;-72
2021/10/22 05:38:58;;;;;;;26.15;17.30;;;;;;;9.57;79.92;100170.00;5022252;28;20042;-73
2021/10/22 05:41:23;;;;;;;26.58;17.67;;;;;;;9.45;80.89;100165.88;5022536;28;20097;-73
2021/10/22 05:43:51;;;;;;;34.15;17.63;;;;;;;9.66;80.39;100172.75;5022607;28;20243;-73
2021/10/22 05:46:20;;;;;;;44.10;28.20;;;;;;;9.75;79.71;100178.00;5022407;28;20251;-73
2021/10/22 05:48:46;;;;;;;30.88;19.67;;;;;;;9.83;79.19;100187.84;5037749;28;20222;-73
2021/10/22 05:51:13;;;;;;;44.10;20.02;;;;;;;9.70;80.38;100193.47;5022619;28;20096;-73
2021/10/22 05:53:40;;;;;;;33.42;19.67;;;;;;;9.82;79.92;100194.13;5022540;28;20030;-73
2021/10/22 05:56:09;;;;;;;31.77;19.15;;;;;;;9.85;80.50;100199.13;5022136;28;20054;-73
2021/10/22 05:58:35;;;;;;;64.22;19.88;;;;;;;9.95;80.14;100204.38;5022464;28;20262;-73
2021/10/22 06:01:02;;;;;;;45.35;20.25;;;;;;;10.09;79.92;100202.06;5022201;28;20065;-73
2021/10/22 06:03:28;;;;;;;75.28;21.48;;;;;;;10.18;79.31;100205.63;5021907;28;20227;-73
2021/10/22 06:05:54;;;;;;;48.58;22.25;;;;;;;10.14;80.11;100212.19;5037229;28;20267;-73
2021/10/22 06:08:21;;;;;;;33.80;19.63;;;;;;;10.08;80.08;100223.38;5042003;28;20044;-72
2021/10/22 06:10:47;;;;;;;39.72;22.38;;;;;;;10.13;81.42;100224.59;5041670;28;20033;-72
2021/10/22 06:13:15;;;;;;;39.42;21.67;;;;;;;9.97;81.76;100226.22;5042064;28;20370;-74
2021/10/22 06:15:41;;;;;;;38.75;21.13;;;;;;;10.23;81.70;100232.53;5042232;28;20041;-74
2021/10/22 06:18:07;;;;;;;47.70;21.05;;;;;;;10.45;80.91;100236.59;5041882;28;20032;-73
2021/10/22 06:20:50;;;;;;;36.35;21.33;;;;;;;10.98;79.01;100238.44;5041989;28;20049;-73
2021/10/22 06:26:00;;;;;;;36.13;20.27;;;;;;;11.59;77.17;100242.88;5041924;28;20037;-74
2021/10/22 06:28:25;;;;;;;33.63;20.02;;;;;;;11.89;75.68;100242.44;5041809;28;20033;-73
2021/10/22 06:30:51;;;;;;;36.05;21.35;;;;;;;12.23;75.40;100241.56;5041887;28;20264;-73
2021/10/22 06:33:16;;;;;;;33.30;21.05;;;;;;;12.59;74.31;100244.88;5041668;28;20238;-73
2021/10/22 06:35:44;;;;;;;32.45;20.23;;;;;;;12.87;73.59;100248.91;5041644;28;20264;-74
2021/10/22 06:38:09;;;;;;;31.67;20.20;;;;;;;13.19;72.27;100256.09;5024234;28;20255;-72
2021/10/22 06:40:35;;;;;;;36.67;22.02;;;;;;;13.59;71.12;100249.09;5024018;28;20026;-73
2021/10/22 06:43:00;;;;;;;35.53;23.85;;;;;;;13.89;70.27;100248.34;5041762;28;20037;-74
2021/10/22 06:45:26;;;;;;;45.58;25.73;;;;;;;14.09;69.44;100250.63;5041739;28;20033;-74
2021/10/22 06:47:51;;;;;;;41.80;25.13;;;;;;;14.47;67.87;100244.47;5041643;28;20064;-74
2021/10/22 06:50:17;;;;;;;44.38;24.77;;;;;;;14.78;67.25;100252.47;5041550;28;20037;-74
2021/10/22 06:52:43;;;;;;;34.85;24.08;;;;;;;14.79;66.93;100248.81;5044485;28;20037;-72
2021/10/22 06:55:09;;;;;;;32.03;21.13;;;;;;;15.05;66.10;100251.13;5045009;28;20057;-72
2021/10/22 06:57:40;;;;;;;35.05;20.67;;;;;;;15.32;65.50;100247.88;5045305;28;20040;-73
2021/10/22 07:00:06;;;;;;;37.65;22.08;;;;;;;15.45;65.34;100236.59;5045150;28;20053;-72
2021/10/22 07:02:36;;;;;;;31.98;21.17;;;;;;;15.38;65.99;100246.34;5044931;28;20033;-74
2021/10/22 07:05:11;;;;;;;33.88;21.90;;;;;;;15.36;65.91;100245.69;5044420;28;20045;-74
2021/10/22 07:07:36;;;;;;;35.28;21.60;;;;;;;15.66;65.04;100253.81;5045088;28;20079;-74
2021/10/22 07:10:02;;;;;;;33.88;22.08;;;;;;;15.85;64.55;100254.09;5045031;28;20104;-74
2021/10/22 07:12:27;;;;;;;29.25;21.10;;;;;;;15.95;64.31;100237.78;5045004;28;20056;-74
2021/10/22 07:14:56;;;;;;;34.10;21.60;;;;;;;16.27;64.26;100256.09;5044862;28;20037;-74
2021/10/22 07:17:22;;;;;;;37.50;22.73;;;;;;;16.35;65.31;100247.16;5045006;28;20029;-73
2021/10/22 07:19:48;;;;;;;34.38;22.77;;;;;;;16.51;64.62;100249.59;5027080;28;20337;-71
2021/10/22 07:22:14;;;;;;;36.15;22.48;;;;;;;16.72;64.04;100240.84;5044888;28;20104;-72
2021/10/22 07:24:39;;;;;;;36.33;24.33;;;;;;;16.86;64.25;100250.66;5043589;28;20267;-72
2021/10/22 07:27:05;;;;;;;35.53;22.88;;;;;;;17.05;64.11;100235.81;5043434;28;20052;-72
2021/10/22 07:29:31;;;;;;;41.55;21.10;;;;;;;17.27;63.25;100223.25;5026994;28;20045;-72
2021/10/22 07:31:58;;;;;;;37.33;23.27;;;;;;;17.52;63.26;100237.03;5044631;28;20050;-74
2021/10/22 07:34:23;;;;;;;34.83;22.08;;;;;;;17.66;62.88;100232.59;5043979;28;20246;-72
2021/10/22 07:36:51;;;;;;;33.38;21.77;;;;;;;17.51;63.05;100240.72;5044573;28;20056;-72
2021/10/22 07:39:17;;;;;;;31.05;21.63;;;;;;;17.72;62.30;100232.69;5044276;28;20100;-72
2021/10/22 07:41:42;;;;;;;32.47;21.88;;;;;;;17.81;61.59;100236.88;5044412;28;20029;-72
2021/10/22 07:44:08;;;;;;;29.75;20.45;;;;;;;17.87;61.30;100237.94;5044230;28;20037;-72
2021/10/22 07:46:33;;;;;;;26.25;19.50;;;;;;;17.89;61.29;100243.09;5044466;28;20345;-72
2021/10/22 07:48:59;;;;;;;26.30;17.67;;;;;;;18.11;59.82;100239.28;5044035;28;20295;-72
2021/10/22 07:51:25;;;;;;;28.48;16.42;;;;;;;18.31;57.37;100242.88;5044331;28;20029;-72
2021/10/22 07:53:50;;;;;;;23.25;16.90;;;;;;;18.42;56.43;100245.00;5044656;28;20044;-72
2021/10/22 07:56:16;;;;;;;26.23;17.23;;;;;;;18.62;55.53;100236.22;5044092;28;20037;-72
2021/10/22 07:58:42;;;;;;;25.13;16.65;;;;;;;18.52;56.06;100241.94;5044094;28;20318;-71
2021/10/22 08:01:08;;;;;;;25.95;16.92;;;;;;;18.74;54.81;100240.81;5044183;28;20059;-72
2021/10/22 08:03:34;;;;;;;26.10;16.42;;;;;;;18.88;54.66;100235.47;5043588;28;20033;-72
2021/10/22 08:06:01;;;;;;;28.00;17.35;;;;;;;18.98;54.72;100231.34;5043598;28;20041;-72
2021/10/22 08:08:27;;;;;;;28.27;17.05;;;;;;;19.04;54.64;100235.06;5043908;28;20262;-72
2021/10/22 08:10:53;;;;;;;25.15;17.10;;;;;;;18.76;54.88;100232.56;5043621;28;20041;-72
2021/10/22 08:13:19;;;;;;;23.10;16.60;;;;;;;18.44;54.84;100236.75;5043849;28;20029;-72
2021/10/22 08:15:45;;;;;;;25.35;17.13;;;;;;;18.38;54.79;100241.06;5043949;28;20346;-72
2021/10/22 08:18:12;;;;;;;23.70;16.38;;;;;;;18.55;54.43;100238.00;5044014;28;20025;-72
2021/10/22 08:20:49;;;;;;;29.52;17.05;;;;;;;18.68;54.39;100233.53;5043615;28;20044;-74
2021/10/22 08:23:14;;;;;;;23.75;15.75;;;;;;;18.34;55.20;100225.56;5043773;28;20036;-74
2021/10/22 08:25:40;;;;;;;29.83;15.90;;;;;;;18.04;56.59;100233.91;5025608;28;20029;-74
2021/10/22 08:28:05;;;;;;;26.77;16.65;;;;;;;18.01;56.69;100228.94;5043499;28;20037;-74
2021/10/22 08:30:31;;;;;;;24.48;14.95;;;;;;;18.42;55.43;100223.53;5043537;28;20134;-73
2021/10/22 08:32:57;;;;;;;29.63;16.58;;;;;;;18.53;55.16;100222.13;5043211;28;20095;-74
2021/10/22 08:35:30;;;;;;;23.73;17.10;;;;;;;18.60;55.04;100224.81;5042935;28;20045;-74
2021/10/22 08:37:56;;;;;;;23.77;16.70;;;;;;;18.47;56.24;100223.75;5043365;28;20037;-71
2021/10/22 08:40:22;;;;;;;27.55;17.33;;;;;;;18.38;56.83;100226.81;5043345;28;20033;-73
2021/10/22 08:42:50;;;;;;;26.45;16.83;;;;;;;18.52;56.67;100217.78;5043263;28;20063;-74
2021/10/22 08:45:17;;;;;;;24.13;16.75;;;;;;;18.65;56.54;100206.31;5043132;28;20043;-74
2021/10/22 08:47:43;;;;;;;29.85;17.40;;;;;;;18.49;57.22;100210.97;5043239;28;20282;-74
2021/10/22 08:50:14;;;;;;;26.45;17.35;;;;;;;18.86;55.35;100203.47;5025442;28;20040;-72
2021/10/22 08:52:43;;;;;;;27.67;17.65;;;;;;;18.89;54.59;100211.13;5043171;28;20029;-74
2021/10/22 08:55:10;;;;;;;29.42;17.65;;;;;;;18.95;54.70;100206.78;5025295;28;20053;-74
2021/10/22 08:57:38;;;;;;;27.08;16.27;;;;;;;18.48;55.34;100205.81;5043076;28;20025;-73
2021/10/22 09:00:07;;;;;;;29.67;17.20;;;;;;;18.47;56.91;100209.53;5042748;28;20039;-72
2021/10/22 09:02:33;;;;;;;26.52;17.58;;;;;;;18.68;55.17;100205.91;5042674;28;20053;-73
2021/10/22 09:05:15;;;;;;;27.67;18.70;;;;;;;18.49;56.37;100200.25;5042243;28;20152;-74
2021/10/22 09:07:50;;;;;;;27.38;17.70;;;;;;;18.33;56.18;100191.75;5042753;28;20029;-74
2021/10/22 09:10:20;;;;;;;24.80;17.13;;;;;;;18.34;55.87;100196.91;5042752;28;20100;-71
2021/10/22 09:12:56;;;;;;;33.08;19.40;;;;;;;18.64;55.95;100200.09;5025327;28;20046;-71
2021/10/22 09:15:34;;;;;;;31.75;20.08;;;;;;;18.52;57.07;100204.38;5042595;28;20188;-71
2021/10/22 09:18:05;;;;;;;28.67;18.77;;;;;;;18.55;56.28;100197.78;5042606;28;20268;-71
2021/10/22 09:20:31;;;;;;;37.03;18.70;;;;;;;18.63;56.75;100200.31;5042862;28;20072;-74
2021/10/22 09:23:03;;;;;;;32.17;22.00;;;;;;;18.46;57.09;100194.47;5042571;28;20037;-71
2021/10/22 09:25:31;;;;;;;38.92;21.73;;;;;;;18.10;58.35;100192.91;5042404;28;20045;-72
2021/10/22 09:27:58;;;;;;;33.45;22.27;;;;;;;18.31;58.46;100194.63;5024754;28;20033;-71
2021/10/22 09:30:24;;;;;;;32.83;20.27;;;;;;;18.37;58.27;100198.34;5042610;28;20060;-74
2021/10/22 09:32:51;;;;;;;34.35;19.05;;;;;;;18.34;57.39;100193.41;5042105;28;20041;-73
2021/10/22 09:35:33;;;;;;;30.38;19.33;;;;;;;18.05;57.64;100155.16;5042057;28;20089;-74
2021/10/22 09:38:07;;;;;;;32.15;18.95;;;;;;;18.36;58.51;100192.16;5024761;28;20033;-75
2021/10/22 09:40:33;;;;;;;34.65;20.63;;;;;;;18.26;58.86;100191.72;5042438;28;20037;-74
2021/10/22 09:43:10;;;;;;;33.53;20.25;;;;;;;18.36;58.16;100188.66;5042747;28;20113;-74
2021/10/22 09:45:35;;;;;;;35.05;22.23;;;;;;;18.30;58.54;100187.63;5042307;28;20037;-74
2021/10/22 09:48:29;;;;;;;30.45;20.33;;;;;;;18.00;59.10;100189.78;5042173;28;20079;-74
2021/10/22 09:51:16;;;;;;;34.08;19.58;;;;;;;18.17;57.82;100185.72;5042033;28;20193;-72
2021/10/22 09:53:41;;;;;;;41.58;22.92;;;;;;;18.18;57.72;100184.69;5014158;28;20270;-71
2021/10/22 09:56:08;;;;;;;37.85;21.42;;;;;;;18.36;57.46;100177.94;5042363;28;20078;-72
2021/10/22 09:58:35;;;;;;;41.00;20.98;;;;;;;18.66;56.27;100178.44;5042187;28;20041;-74
2021/10/22 10:01:12;;;;;;;32.33;19.58;;;;;;;18.47;57.09;100171.97;5042052;28;20314;-74
2021/10/22 10:03:40;;;;;;;35.85;22.52;;;;;;;18.44;58.11;100177.75;5024000;28;20034;-71
2021/10/22 10:06:08;;;;;;;34.70;20.95;;;;;;;18.49;58.33;100170.75;5041554;28;20029;-71
2021/10/22 10:08:38;;;;;;;27.00;16.55;;;;;;;18.68;57.87;100165.66;5024417;28;20083;-74
2021/10/22 10:11:05;;;;;;;23.60;16.15;;;;;;;18.79;57.07;100162.41;5041762;28;20037;-74
2021/10/22 10:13:33;;;;;;;30.80;16.60;;;;;;;18.65;58.23;100160.72;5042053;28;20085;-74
2021/10/22 10:16:01;;;;;;;28.50;14.85;;;;;;;18.47;59.56;100158.59;5041851;28;20033;-74
2021/10/22 10:18:28;;;;;;;23.75;15.05;;;;;;;18.52;59.21;100158.78;5042015;28;20083;-74
2021/10/22 10:20:56;;;;;;;25.45;15.93;;;;;;;18.50;59.92;100159.00;5024218;28;20136;-72
2021/10/22 10:23:22;;;;;;;20.80;13.90;;;;;;;18.61;59.57;100148.69;5041934;28;20037;-71
2021/10/22 10:25:47;;;;;;;23.48;14.77;;;;;;;18.69;60.14;100144.00;5023991;28;20033;-72
2021/10/22 10:28:13;;;;;;;24.38;14.57;;;;;;;18.77;58.71;100151.06;5045698;28;20037;-74
2021/10/22 10:30:40;;;;;;;21.98;13.70;;;;;;;18.72;57.95;100129.34;5045984;28;20030;-71
2021/10/22 10:33:08;;;;;;;19.92;13.63;;;;;;;18.86;57.94;100138.25;5045433;28;20095;-72
2021/10/22 10:35:39;;;;;;;27.58;14.40;;;;;;;18.92;56.84;100142.81;5045551;28;20032;-74
2021/10/22 10:38:12;;;;;;;21.30;13.65;;;;;;;18.94;57.90;100132.69;5045633;28;20095;-73
2021/10/22 10:40:38;;;;;;;23.05;14.90;;;;;;;18.90;57.81;100129.59;5045484;28;20033;-73
2021/10/22 10:43:17;;;;;;;19.65;12.88;;;;;;;18.90;58.53;100126.09;5045641;28;20033;-74
2021/10/22 10:45:45;;;;;;;17.67;12.68;;;;;;;18.99;57.76;100104.19;5027859;28;20200;-71
2021/10/22 10:48:13;;;;;;;21.33;13.30;;;;;;;19.05;57.48;100119.47;5045370;28;20292;-74
2021/10/22 10:53:43;;;;;;;22.35;12.52;;;;;;;19.03;58.09;100109.97;5037028;28;20041;-74
2021/10/22 10:56:31;;;;;;;19.90;12.45;;;;;;;19.08;58.36;100105.63;5027467;28;20315;-74
2021/10/22 10:58:57;;;;;;;18.40;12.52;;;;;;;19.33;57.35;100095.06;5045205;28;20038;-74
2021/10/22 11:01:25;;;;;;;18.50;12.38;;;;;;;19.14;58.30;100096.75;5045298;28;20041;-71
2021/10/22 11:03:51;;;;;;;20.13;12.40;;;;;;;19.12;58.61;100098.81;5027020;28;20022;-72
2021/10/22 11:06:39;;;;;;;17.75;13.52;;;;;;;19.05;57.44;100086.44;5044880;28;20061;-72
2021/10/22 11:09:05;;;;;;;18.95;12.00;;;;;;;18.93;58.68;100080.88;5044837;28;20323;-72
2021/10/22 11:11:35;;;;;;;19.75;12.23;;;;;;;19.07;58.44;100087.03;5045009;28;20041;-72
2021/10/22 11:14:04;;;;;;;19.70;11.00;;;;;;;19.04;58.27;100084.78;5044856;28;20311;-74
2021/10/22 11:19:28;;;;;;;16.90;11.18;;;;;;;19.03;57.39;100078.59;5044726;28;20120;-74
2021/10/22 11:22:11;;;;;;;19.40;11.95;;;;;;;18.99;57.15;100068.47;5041851;28;20053;-71
2021/10/22 11:24:38;;;;;;;19.52;10.73;;;;;;;19.12;58.28;100066.59;5044726;28;20033;-71
2021/10/22 11:27:03;;;;;;;15.70;11.00;;;;;;;19.13;57.35;100064.75;5044732;28;20041;-74